Time;durP1;ratioP1;P1;durP2;ratioP2;P2;SDS_P1;SDS_P2;PMS_P1;PMS_P2;Temp;Humidity;BMP_temperature;BMP_pressure;BME280_temperature;BME280_humidity;BME280_pressure;Samples;Min_cycle;Max_cycle;Signal;HPM_P1;HPM_P2
2022/06/24 00:02:26;;;;;;;2.30;2.20;;;26.20;63.80;;;;;;5016323;28;20510;-85
2022/06/24 00:04:55;;;;;;;2.20;2.10;;;26.20;63.80;;;;;;5016435;28;20502;-84
2022/06/24 00:07:22;;;;;;;1.80;1.70;;;26.20;63.70;;;;;;5016630;28;20443;-85
2022/06/24 00:09:50;;;;;;;2.10;2.00;;;26.20;63.70;;;;;;5016455;28;20518;-85
2022/06/24 00:12:21;;;;;;;1.83;1.73;;;26.20;63.70;;;;;;5016385;28;20440;-85
2022/06/24 00:14:58;;;;;;;2.27;2.10;;;26.20;63.70;;;;;;5016258;28;20888;-85
2022/06/24 00:17:29;;;;;;;2.13;2.03;;;26.20;63.70;;;;;;5016211;28;20446;-84
2022/06/24 00:19:57;;;;;;;2.57;2.37;;;26.20;63.70;;;;;;5016257;28;20523;-85
2022/06/24 00:22:26;;;;;;;2.20;2.10;;;26.20;63.60;;;;;;5016168;28;20443;-85
2022/06/24 00:25:08;;;;;;;1.93;1.83;;;26.20;63.60;;;;;;5016058;28;20439;-85
2022/06/24 00:27:37;;;;;;;1.80;1.70;;;26.30;63.60;;;;;;5015917;28;20478;-84
2022/06/24 00:30:12;;;;;;;1.90;1.80;;;26.20;63.70;;;;;;5016000;28;20538;-90
2022/06/24 00:32:39;;;;;;;2.33;2.17;;;26.30;63.70;;;;;;5016170;28;20475;-84
2022/06/24 00:35:09;;;;;;;2.17;2.07;;;26.20;63.70;;;;;;5015683;28;20523;-83
2022/06/24 00:37:37;;;;;;;2.00;1.90;;;26.20;63.60;;;;;;5015936;28;20444;-84
2022/06/24 00:40:24;;;;;;;2.20;2.10;;;26.20;63.70;;;;;;5015768;28;20831;-84
2022/06/24 00:42:53;;;;;;;2.20;2.10;;;26.30;63.60;;;;;;4998470;28;20482;-83
2022/06/24 00:45:32;;;;;;;2.07;1.97;;;26.20;64.50;;;;;;5015690;28;20470;-84
2022/06/24 00:48:00;;;;;;;2.07;1.97;;;26.30;63.70;;;;;;5015617;28;20534;-87
2022/06/24 00:50:30;;;;;;;1.97;1.87;;;26.20;63.70;;;;;;5015718;28;20578;-84
2022/06/24 00:52:58;;;;;;;1.90;1.80;;;26.20;63.60;;;;;;5015546;28;20998;-84
2022/06/24 00:55:28;;;;;;;2.00;1.90;;;26.20;64.50;;;;;;5015487;28;20444;-84
2022/06/24 00:57:58;;;;;;;2.10;2.00;;;26.30;63.70;;;;;;5016036;28;20482;-84
2022/06/24 01:00:26;;;;;;;2.17;2.07;;;26.20;63.60;;;;;;5015261;28;20467;-84
2022/06/24 01:02:58;;;;;;;1.90;1.80;;;26.20;63.60;;;;;;5014999;28;20511;-84
2022/06/24 01:05:25;;;;;;;1.60;1.50;;;26.20;63.60;;;;;;5015296;28;20923;-85
2022/06/24 01:07:52;;;;;;;2.17;2.07;;;26.20;63.60;;;;;;5015337;28;20478;-90
2022/06/24 01:10:19;;;;;;;2.10;2.00;;;26.20;63.60;;;;;;5015359;28;20803;-84
2022/06/24 01:12:46;;;;;;;2.10;2.00;;;26.20;63.60;;;;;;5015106;28;20474;-84
2022/06/24 01:15:15;;;;;;;1.83;1.73;;;26.20;63.60;;;;;;5014931;28;20456;-85
2022/06/24 01:17:42;;;;;;;2.00;1.90;;;26.30;63.60;;;;;;5015184;28;20446;-90
2022/06/24 01:20:11;;;;;;;1.70;1.60;;;26.20;64.40;;;;;;5015096;28;20841;-84
2022/06/24 01:22:40;;;;;;;2.30;2.20;;;26.20;63.60;;;;;;5014824;28;20442;-84
2022/06/24 01:25:07;;;;;;;2.40;2.20;;;26.30;63.60;;;;;;5014971;28;20530;-84
2022/06/24 01:27:35;;;;;;;1.80;1.70;;;26.20;63.60;;;;;;5014875;28;20549;-84
2022/06/24 01:30:02;;;;;;;1.90;1.80;;;26.20;63.60;;;;;;5014924;28;20479;-84
2022/06/24 01:32:29;;;;;;;1.93;1.83;;;26.30;63.60;;;;;;5014802;28;20566;-84
2022/06/24 01:34:56;;;;;;;2.10;2.00;;;26.30;63.60;;;;;;5014695;28;20491;-84
2022/06/24 01:37:23;;;;;;;2.33;2.20;;;26.20;63.60;;;;;;5014732;28;21005;-84
2022/06/24 01:39:52;;;;;;;2.40;2.30;;;26.20;63.60;;;;;;5014710;28;20946;-84
2022/06/24 01:42:19;;;;;;;1.83;1.73;;;26.20;63.60;;;;;;5014525;28;20446;-84
2022/06/24 01:44:46;;;;;;;1.70;1.60;;;26.30;63.70;;;;;;5014391;28;20493;-84
2022/06/24 01:47:14;;;;;;;2.33;2.13;;;26.20;63.70;;;;;;5014501;28;20518;-85
2022/06/24 01:49:40;;;;;;;2.10;2.00;;;26.20;63.70;;;;;;5014437;28;20486;-85
2022/06/24 01:52:07;;;;;;;2.00;1.90;;;26.20;63.70;;;;;;5013993;28;20466;-84
2022/06/24 01:54:34;;;;;;;2.50;2.30;;;26.20;63.80;;;;;;5014466;28;20534;-85
2022/06/24 01:57:03;;;;;;;1.90;1.80;;;26.20;63.80;;;;;;5014574;28;20526;-85
2022/06/24 01:59:30;;;;;;;2.20;2.00;;;26.20;63.80;;;;;;5014401;28;20443;-85
2022/06/24 02:01:57;;;;;;;1.80;1.70;;;26.30;64.00;;;;;;5014401;28;20443;-85
2022/06/24 02:04:23;;;;;;;1.90;1.80;;;26.20;63.90;;;;;;5014186;28;20843;-84
2022/06/24 02:06:50;;;;;;;1.73;1.63;;;26.20;63.90;;;;;;5014202;28;20439;-84
2022/06/24 02:09:17;;;;;;;2.30;2.20;;;26.20;63.90;;;;;;5014140;28;20444;-84
2022/06/24 02:14:31;;;;;;;2.30;2.20;;;26.20;64.00;;;;;;5013461;28;20447;-83
2022/06/24 02:16:58;;;;;;;2.03;1.93;;;26.20;64.10;;;;;;5014222;28;20546;-84
2022/06/24 02:19:25;;;;;;;1.97;1.87;;;26.20;64.10;;;;;;5014073;28;20523;-83
2022/06/24 02:21:52;;;;;;;2.20;2.10;;;26.20;64.20;;;;;;5013867;28;20435;-83
2022/06/24 02:24:19;;;;;;;2.00;1.90;;;26.20;64.10;;;;;;5013909;28;21074;-84
2022/06/24 02:26:47;;;;;;;1.90;1.80;;;26.20;64.20;;;;;;5013697;28;20511;-84
2022/06/24 02:29:14;;;;;;;1.80;1.70;;;26.20;64.20;;;;;;5014091;28;20448;-84
2022/06/24 02:31:42;;;;;;;1.80;1.70;;;26.30;64.30;;;;;;5013511;28;20439;-83
2022/06/24 02:34:10;;;;;;;2.00;1.90;;;26.30;64.40;;;;;;5013742;28;20535;-84
2022/06/24 02:36:37;;;;;;;2.10;2.00;;;26.30;64.40;;;;;;5013763;28;20447;-84
2022/06/24 02:39:04;;;;;;;2.07;1.97;;;26.30;64.40;;;;;;5013657;28;20446;-84
2022/06/24 02:41:31;;;;;;;1.80;1.70;;;26.30;64.40;;;;;;5013734;28;20531;-84
2022/06/24 02:43:58;;;;;;;2.40;2.20;;;26.20;64.40;;;;;;5013527;28;20583;-84
2022/06/24 02:46:25;;;;;;;1.80;1.70;;;26.30;64.50;;;;;;5013637;28;20470;-84
2022/06/24 02:48:54;;;;;;;2.30;2.20;;;26.30;64.50;;;;;;5013747;28;20798;-85
2022/06/24 02:51:20;;;;;;;2.13;2.03;;;26.20;64.50;;;;;;5013434;28;20454;-90
2022/06/24 02:53:47;;;;;;;2.30;2.10;;;26.30;64.60;;;;;;5013325;28;20543;-84
2022/06/24 02:56:15;;;;;;;1.90;1.80;;;26.20;64.60;;;;;;5013551;28;20479;-84
2022/06/24 02:58:43;;;;;;;1.87;1.77;;;26.30;64.70;;;;;;5013598;28;20447;-85
2022/06/24 03:01:11;;;;;;;1.77;1.67;;;26.30;64.80;;;;;;5013415;28;20486;-85
2022/06/24 03:03:38;;;;;;;1.97;1.87;;;26.20;64.70;;;;;;5013324;28;20493;-83
2022/06/24 03:06:07;;;;;;;2.03;1.93;;;26.30;64.80;;;;;;5013374;28;20636;-84
2022/06/24 03:08:34;;;;;;;2.10;2.00;;;26.30;64.70;;;;;;5013435;28;20894;-84
2022/06/24 03:11:01;;;;;;;1.90;1.80;;;26.30;64.80;;;;;;5013417;28;20534;-83
2022/06/24 03:13:29;;;;;;;2.23;1.93;;;26.30;64.70;;;;;;5013116;28;20499;-86
2022/06/24 03:15:56;;;;;;;2.20;2.10;;;26.20;64.70;;;;;;5013340;28;20439;-84
2022/06/24 03:18:23;;;;;;;2.23;1.90;;;26.30;64.80;;;;;;5013388;28;20531;-84
2022/06/24 03:20:50;;;;;;;2.10;2.00;;;26.30;64.80;;;;;;5013317;28;20440;-84
2022/06/24 03:23:21;;;;;;;2.10;1.90;;;26.30;64.90;;;;;;5013227;28;20446;-85
2022/06/24 03:25:48;;;;;;;2.20;2.00;;;26.30;64.90;;;;;;5016614;28;20466;-84
2022/06/24 03:28:15;;;;;;;1.73;1.63;;;26.30;64.90;;;;;;5017127;28;20550;-83
2022/06/24 03:30:42;;;;;;;1.90;1.80;;;26.30;65.00;;;;;;5016953;28;20483;-83
2022/06/24 03:33:09;;;;;;;1.90;1.80;;;26.30;65.00;;;;;;5016963;28;20498;-84
2022/06/24 03:35:36;;;;;;;2.47;2.10;;;26.20;64.90;;;;;;5017024;28;20439;-84
2022/06/24 03:38:03;;;;;;;2.57;1.83;;;26.30;65.00;;;;;;5016973;28;20449;-84
2022/06/24 03:40:31;;;;;;;1.83;1.73;;;26.30;65.00;;;;;;5017097;28;20864;-83
2022/06/24 03:42:58;;;;;;;1.70;1.60;;;26.30;65.00;;;;;;5016097;28;20530;-83
2022/06/24 03:45:25;;;;;;;1.93;1.70;;;26.30;65.10;;;;;;5016760;28;21077;-84
2022/06/24 03:47:52;;;;;;;1.80;1.70;;;26.30;65.00;;;;;;5016830;28;20447;-84
2022/06/24 03:50:19;;;;;;;1.57;1.47;;;26.30;65.10;;;;;;5016668;28;20800;-84
2022/06/24 03:52:46;;;;;;;1.97;1.80;;;26.30;65.10;;;;;;5016546;28;20440;-84
2022/06/24 03:55:13;;;;;;;1.63;1.53;;;26.30;65.10;;;;;;5016819;28;20869;-84
2022/06/24 03:57:41;;;;;;;1.77;1.67;;;26.30;66.00;;;;;;5016483;28;20443;-85
2022/06/24 04:00:09;;;;;;;1.63;1.53;;;26.30;65.20;;;;;;5016437;28;20645;-85
2022/06/24 04:02:36;;;;;;;1.57;1.47;;;26.30;65.20;;;;;;5016397;28;20471;-85
2022/06/24 04:05:03;;;;;;;1.90;1.80;;;26.30;65.20;;;;;;5016263;28;20529;-85
2022/06/24 04:07:30;;;;;;;1.73;1.50;;;26.30;65.20;;;;;;5016378;28;20518;-85
2022/06/24 04:09:57;;;;;;;1.90;1.80;;;26.30;65.20;;;;;;5016417;28;20567;-84
2022/06/24 04:12:23;;;;;;;1.70;1.60;;;26.30;65.20;;;;;;5016122;28;20538;-85
2022/06/24 04:17:37;;;;;;;1.90;1.80;;;26.30;65.30;;;;;;5008969;28;20432;-84
2022/06/24 04:20:05;;;;;;;1.50;1.40;;;26.20;65.30;;;;;;5016245;28;20534;-84
2022/06/24 04:22:32;;;;;;;1.93;1.83;;;26.30;65.40;;;;;;5016229;28;20515;-84
2022/06/24 04:24:59;;;;;;;1.60;1.50;;;26.30;65.40;;;;;;5016030;28;20523;-84
2022/06/24 04:27:26;;;;;;;1.87;1.77;;;26.30;65.40;;;;;;5015599;28;20906;-85
2022/06/24 04:29:59;;;;;;;2.00;1.90;;;26.30;65.40;;;;;;5016040;28;20441;-85
2022/06/24 04:32:26;;;;;;;1.60;1.50;;;26.30;65.30;;;;;;5015758;28;20526;-86
2022/06/24 04:34:53;;;;;;;2.10;2.00;;;26.30;65.40;;;;;;5016035;28;20442;-86
2022/06/24 04:37:20;;;;;;;1.90;1.80;;;26.30;65.40;;;;;;5015105;28;20450;-85
2022/06/24 04:39:46;;;;;;;2.20;2.00;;;26.30;65.40;;;;;;5015919;28;20479;-85
2022/06/24 04:42:13;;;;;;;1.63;1.50;;;26.30;65.50;;;;;;5015693;28;20526;-85
2022/06/24 04:44:40;;;;;;;1.57;1.47;;;26.30;65.50;;;;;;5015630;28;20549;-85
2022/06/24 04:47:09;;;;;;;1.50;1.40;;;26.30;65.40;;;;;;5015670;28;20522;-85
2022/06/24 04:49:37;;;;;;;1.50;1.40;;;26.30;65.40;;;;;;5015792;28;20446;-85
2022/06/24 04:52:06;;;;;;;2.00;1.90;;;26.30;65.50;;;;;;5015393;28;20847;-87
2022/06/24 04:54:33;;;;;;;1.87;1.77;;;26.30;65.50;;;;;;5015659;28;20808;-84
2022/06/24 04:56:59;;;;;;;1.57;1.47;;;26.30;65.50;;;;;;5015494;28;20451;-85
2022/06/24 04:59:27;;;;;;;1.97;1.60;;;26.30;65.50;;;;;;5015442;28;20443;-85
2022/06/24 05:01:54;;;;;;;1.50;1.40;;;26.30;65.40;;;;;;5015507;28;20440;-86
2022/06/24 05:04:22;;;;;;;1.57;1.47;;;26.30;65.40;;;;;;5015394;28;20501;-85
2022/06/24 05:06:49;;;;;;;1.30;1.20;;;26.30;65.40;;;;;;5015332;28;20479;-85
2022/06/24 05:09:17;;;;;;;1.43;1.30;;;26.30;65.40;;;;;;5015207;28;20522;-87
2022/06/24 05:11:45;;;;;;;1.40;1.30;;;26.30;65.50;;;;;;5015048;28;20446;-85
2022/06/24 05:14:12;;;;;;;1.90;1.80;;;26.30;65.50;;;;;;5015089;28;20475;-85
2022/06/24 05:16:40;;;;;;;1.60;1.50;;;26.30;65.50;;;;;;5015212;28;20510;-85
2022/06/24 05:19:08;;;;;;;1.50;1.40;;;26.30;65.50;;;;;;5015112;28;20521;-85
2022/06/24 05:21:36;;;;;;;1.80;1.70;;;26.30;65.50;;;;;;5015072;28;20440;-84
2022/06/24 05:24:04;;;;;;;1.73;1.63;;;26.30;65.60;;;;;;5014990;28;20982;-85
2022/06/24 05:26:30;;;;;;;1.83;1.73;;;26.30;65.50;;;;;;5014896;28;20801;-85
2022/06/24 05:28:58;;;;;;;1.70;1.60;;;26.30;65.60;;;;;;5014904;28;20465;-85
2022/06/24 05:31:25;;;;;;;1.40;1.30;;;26.30;65.60;;;;;;5015201;28;20982;-90
2022/06/24 05:33:52;;;;;;;1.70;1.60;;;26.30;65.60;;;;;;5014766;28;20443;-85
2022/06/24 05:36:18;;;;;;;1.60;1.50;;;26.30;65.60;;;;;;5014798;28;20522;-83
2022/06/24 05:38:47;;;;;;;1.60;1.50;;;26.30;65.60;;;;;;5014831;28;20535;-84
2022/06/24 05:41:14;;;;;;;1.60;1.50;;;26.30;65.60;;;;;;5014630;28;20450;-84
2022/06/24 05:43:41;;;;;;;1.67;1.57;;;26.30;65.60;;;;;;5014436;28;20463;-86
2022/06/24 05:46:08;;;;;;;1.70;1.60;;;26.30;65.60;;;;;;5014602;28;20582;-84
2022/06/24 05:48:34;;;;;;;1.20;1.10;;;26.30;65.60;;;;;;5014663;28;20519;-88
2022/06/24 05:51:08;;;;;;;1.87;1.77;;;26.30;65.60;;;;;;5014355;28;20526;-84
2022/06/24 05:56:21;;;;;;;1.60;1.50;;;26.30;65.50;;;;;;5014670;28;20470;-84
2022/06/24 05:58:48;;;;;;;1.73;1.63;;;26.30;65.60;;;;;;5014372;28;20854;-84
2022/06/24 06:01:15;;;;;;;1.60;1.50;;;26.20;65.60;;;;;;5014036;28;20475;-85
2022/06/24 06:03:42;;;;;;;1.93;1.83;;;26.30;65.60;;;;;;5014272;28;20523;-84
2022/06/24 06:06:09;;;;;;;1.67;1.57;;;26.30;65.60;;;;;;5014202;28;20932;-85
2022/06/24 06:08:37;;;;;;;1.57;1.30;;;26.30;65.60;;;;;;5014175;28;20468;-86
2022/06/24 06:11:11;;;;;;;1.40;1.30;;;26.30;65.60;;;;;;5014092;28;20479;-86
2022/06/24 06:13:39;;;;;;;1.50;1.40;;;26.30;65.60;;;;;;5013965;28;20562;-86
2022/06/24 06:16:06;;;;;;;1.20;1.10;;;26.30;65.60;;;;;;5014318;28;20534;-84
2022/06/24 06:18:34;;;;;;;1.50;1.40;;;26.30;65.60;;;;;;5014063;28;20869;-84
2022/06/24 06:21:01;;;;;;;1.70;1.60;;;26.30;65.70;;;;;;5013983;28;20486;-83
2022/06/24 06:23:29;;;;;;;1.50;1.40;;;26.30;65.70;;;;;;5013939;28;20440;-88
2022/06/24 06:25:56;;;;;;;1.30;1.20;;;26.30;65.70;;;;;;5013657;28;20821;-84
2022/06/24 06:28:23;;;;;;;1.60;1.50;;;26.30;66.60;;;;;;5013842;28;20467;-87
2022/06/24 06:30:52;;;;;;;1.20;1.10;;;26.30;65.70;;;;;;5013805;28;20530;-84
2022/06/24 06:33:20;;;;;;;1.57;1.47;;;26.30;65.70;;;;;;5013710;28;20550;-84
2022/06/24 06:35:47;;;;;;;1.60;1.50;;;26.30;65.80;;;;;;5013825;28;20965;-84
2022/06/24 06:38:15;;;;;;;1.80;1.70;;;26.30;65.80;;;;;;5013655;28;20443;-85
2022/06/24 06:40:42;;;;;;;1.60;1.50;;;26.30;65.80;;;;;;5013421;28;20506;-84
2022/06/24 06:43:09;;;;;;;1.60;1.50;;;26.30;65.80;;;;;;5013437;28;20550;-87
2022/06/24 06:45:37;;;;;;;1.40;1.27;;;26.30;65.80;;;;;;5013650;28;20486;-85
2022/06/24 06:48:07;;;;;;;1.40;1.30;;;26.30;65.80;;;;;;5013346;28;20961;-84
2022/06/24 06:50:34;;;;;;;1.30;1.20;;;26.30;65.80;;;;;;5013453;28;20783;-84
2022/06/24 06:53:02;;;;;;;1.40;1.30;;;26.30;65.80;;;;;;5013391;28;20448;-84
2022/06/24 06:55:28;;;;;;;1.40;1.30;;;26.30;65.80;;;;;;5013490;28;20447;-84
2022/06/24 06:57:55;;;;;;;1.37;1.27;;;26.30;65.80;;;;;;5013977;28;20530;-84
2022/06/24 07:00:23;;;;;;;1.60;1.50;;;26.30;65.80;;;;;;5014107;28;20826;-87
2022/06/24 07:02:50;;;;;;;1.50;1.40;;;26.30;65.80;;;;;;5013346;28;20518;-88
2022/06/24 07:05:18;;;;;;;1.50;1.40;;;26.30;65.90;;;;;;5013230;28;20574;-84
2022/06/24 07:07:45;;;;;;;1.37;1.27;;;26.30;65.90;;;;;;5013436;28;20638;-86
2022/06/24 07:10:12;;;;;;;1.30;1.20;;;26.30;65.90;;;;;;5013235;28;20542;-84
2022/06/24 07:12:39;;;;;;;1.40;1.30;;;26.30;65.90;;;;;;5013444;28;20512;-84
2022/06/24 07:15:07;;;;;;;1.50;1.40;;;26.30;65.90;;;;;;5013145;28;20491;-84
2022/06/24 07:17:34;;;;;;;1.40;1.30;;;26.30;66.00;;;;;;5013262;28;20451;-84
2022/06/24 07:20:01;;;;;;;2.43;1.70;;;26.30;65.90;;;;;;5013226;28;20450;-84
2022/06/24 07:22:29;;;;;;;1.33;1.23;;;26.30;65.90;;;;;;5013217;28;20500;-84
2022/06/24 07:24:56;;;;;;;1.40;1.30;;;26.30;65.90;;;;;;5013211;28;20570;-85
2022/06/24 07:27:23;;;;;;;1.47;1.37;;;26.30;66.00;;;;;;5013074;28;20573;-84
2022/06/24 07:29:50;;;;;;;1.50;1.40;;;26.30;66.00;;;;;;5013094;28;20471;-84
2022/06/24 07:32:16;;;;;;;1.50;1.40;;;26.30;66.10;;;;;;5013145;28;20523;-83
2022/06/24 07:34:43;;;;;;;1.30;1.10;;;26.30;66.10;;;;;;5012987;28;20526;-87
2022/06/24 07:37:10;;;;;;;1.60;1.50;;;26.30;66.10;;;;;;5013069;28;20447;-84
2022/06/24 07:39:40;;;;;;;1.40;1.30;;;26.30;66.10;;;;;;5013014;28;21104;-84
2022/06/24 07:42:07;;;;;;;1.13;1.03;;;26.40;66.20;;;;;;5012882;28;20442;-84
2022/06/24 07:44:34;;;;;;;1.53;1.43;;;26.30;66.20;;;;;;5012969;28;20550;-83
2022/06/24 07:47:01;;;;;;;1.30;1.20;;;26.30;66.10;;;;;;5012964;28;20439;-84
2022/06/24 07:49:28;;;;;;;1.20;1.10;;;26.30;66.20;;;;;;5013176;28;20443;-84
2022/06/24 07:51:55;;;;;;;1.30;1.20;;;26.30;66.20;;;;;;5012874;28;20546;-84
2022/06/24 07:54:22;;;;;;;1.27;1.17;;;26.30;66.30;;;;;;5013033;28;20439;-84
2022/06/24 07:56:56;;;;;;;1.33;1.23;;;26.30;66.20;;;;;;5013097;28;20439;-84
2022/06/24 07:59:24;;;;;;;1.30;1.20;;;26.30;66.30;;;;;;5012847;28;20439;-84
2022/06/24 08:01:52;;;;;;;1.40;1.30;;;26.30;66.30;;;;;;5012870;28;20447;-85
2022/06/24 08:04:19;;;;;;;1.30;1.20;;;26.30;66.30;;;;;;5012919;28;20453;-84
2022/06/24 08:06:46;;;;;;;1.70;1.40;;;26.30;66.30;;;;;;5012717;28;21077;-87
2022/06/24 08:09:14;;;;;;;1.40;1.30;;;26.30;66.30;;;;;;5012842;28;20448;-88
2022/06/24 08:11:41;;;;;;;1.50;1.40;;;26.30;66.30;;;;;;5014374;28;20465;-83
2022/06/24 08:14:10;;;;;;;1.60;1.50;;;26.30;66.40;;;;;;5016327;28;20481;-84
2022/06/24 08:16:37;;;;;;;1.30;1.20;;;26.30;66.30;;;;;;5016332;28;20530;-84
2022/06/24 08:19:04;;;;;;;1.37;1.27;;;26.30;67.20;;;;;;5016325;28;20531;-84
2022/06/24 08:21:31;;;;;;;1.30;1.20;;;26.30;66.30;;;;;;5016049;28;20486;-84
2022/06/24 08:23:59;;;;;;;1.30;1.20;;;26.30;66.30;;;;;;5017298;28;20534;-83
2022/06/24 08:26:26;;;;;;;1.30;1.20;;;26.30;66.30;;;;;;5016598;28;20526;-84
2022/06/24 08:28:53;;;;;;;1.50;1.20;;;26.30;66.40;;;;;;5017310;28;20530;-83
2022/06/24 08:31:21;;;;;;;1.30;1.20;;;26.30;66.40;;;;;;5016041;28;20529;-84
2022/06/24 08:33:48;;;;;;;1.30;1.20;;;26.30;66.30;;;;;;5015914;28;20869;-84
2022/06/24 08:36:16;;;;;;;1.40;1.30;;;26.30;66.30;;;;;;5016157;28;20515;-87
2022/06/24 08:38:43;;;;;;;1.20;1.10;;;26.30;66.30;;;;;;5016149;28;20539;-84
2022/06/24 08:41:11;;;;;;;1.20;1.10;;;26.30;66.40;;;;;;5015794;28;20514;-83
2022/06/24 08:43:38;;;;;;;1.43;1.33;;;26.30;66.30;;;;;;5015666;28;20546;-85
2022/06/24 08:46:05;;;;;;;1.73;1.30;;;26.30;66.40;;;;;;5015980;28;20578;-84
2022/06/24 08:48:33;;;;;;;1.27;1.17;;;26.30;66.40;;;;;;5015698;28;20471;-84
2022/06/24 08:51:01;;;;;;;1.20;1.10;;;26.30;66.40;;;;;;5015658;28;20540;-86
2022/06/24 08:53:29;;;;;;;1.23;1.13;;;26.30;66.30;;;;;;5015604;28;20444;-84
2022/06/24 08:55:58;;;;;;;1.30;1.20;;;26.30;66.40;;;;;;5015615;28;20448;-85
2022/06/24 08:58:25;;;;;;;1.10;1.00;;;26.30;66.40;;;;;;5015455;28;20791;-83
2022/06/24 09:00:53;;;;;;;1.20;1.10;;;26.30;66.40;;;;;;5015621;28;20502;-84
2022/06/24 09:03:20;;;;;;;1.37;1.27;;;26.30;66.40;;;;;;5015420;28;20482;-87
2022/06/24 09:05:49;;;;;;;1.20;1.10;;;26.30;66.50;;;;;;5015381;28;20479;-86
2022/06/24 09:08:17;;;;;;;1.43;1.33;;;26.30;66.50;;;;;;5015566;28;20482;-88
2022/06/24 09:11:06;;;;;;;1.40;1.30;;;26.30;66.60;;;;;;5015254;28;20448;-85
2022/06/24 09:13:42;;;;;;;1.10;1.00;;;26.30;66.50;;;;;;5015190;28;20460;-84
2022/06/24 09:16:09;;;;;;;1.37;1.27;;;26.30;66.50;;;;;;5015267;28;20439;-84
2022/06/24 09:18:36;;;;;;;1.10;1.00;;;26.30;66.60;;;;;;5015224;28;20527;-84
2022/06/24 09:21:05;;;;;;;1.13;1.03;;;26.30;66.60;;;;;;5014713;28;20859;-84
2022/06/24 09:23:32;;;;;;;1.30;1.20;;;26.30;66.50;;;;;;5014662;28;20931;-84
2022/06/24 09:26:00;;;;;;;1.30;1.20;;;26.30;66.60;;;;;;5014750;28;20523;-84
2022/06/24 09:28:29;;;;;;;1.20;1.07;;;26.30;66.50;;;;;;5014651;28;20467;-83
2022/06/24 09:31:01;;;;;;;1.37;1.27;;;26.30;66.60;;;;;;5014893;28;20475;-83
2022/06/24 09:33:29;;;;;;;2.03;1.20;;;26.30;66.50;;;;;;5014874;28;20444;-85
2022/06/24 09:36:00;;;;;;;1.50;1.40;;;26.30;66.60;;;;;;5014928;28;20450;-84
2022/06/24 09:38:29;;;;;;;1.33;1.23;;;26.30;66.50;;;;;;5014954;28;20443;-84
2022/06/24 09:41:01;;;;;;;1.20;0.90;;;26.30;66.60;;;;;;5014698;28;20535;-84
2022/06/24 09:43:30;;;;;;;1.37;1.27;;;26.30;66.60;;;;;;5014763;28;20463;-85
2022/06/24 09:45:58;;;;;;;1.63;1.30;;;26.30;66.60;;;;;;5015014;28;20505;-84
2022/06/24 09:48:32;;;;;;;1.10;1.00;;;26.30;67.40;;;;;;5014835;28;20927;-89
2022/06/24 09:50:59;;;;;;;1.30;1.20;;;26.40;66.60;;;;;;5014768;28;20927;-90
2022/06/24 09:53:32;;;;;;;1.40;1.30;;;26.30;66.60;;;;;;5014615;28;20471;-87
2022/06/24 09:56:00;;;;;;;1.73;1.00;;;26.30;66.60;;;;;;5014514;28;20459;-84
2022/06/24 09:58:27;;;;;;;1.70;1.10;;;26.30;66.60;;;;;;5014464;28;20838;-88
2022/06/24 10:00:54;;;;;;;1.20;1.10;;;26.30;66.60;;;;;;5014395;28;20558;-88
2022/06/24 10:03:21;;;;;;;1.10;1.00;;;26.30;66.60;;;;;;5014319;28;20454;-85
2022/06/24 10:05:49;;;;;;;1.00;0.90;;;26.30;66.60;;;;;;5014375;28;20479;-84
2022/06/24 10:08:18;;;;;;;1.97;1.20;;;26.30;67.40;;;;;;5014639;28;20535;-85
2022/06/24 10:10:48;;;;;;;1.27;1.07;;;26.30;66.60;;;;;;5014323;28;20436;-90
2022/06/24 10:13:23;;;;;;;1.53;1.10;;;26.30;67.50;;;;;;5014379;28;20455;-85
2022/06/24 10:15:50;;;;;;;1.53;1.43;;;26.30;66.60;;;;;;5014195;28;20439;-89
2022/06/24 10:18:19;;;;;;;1.10;1.00;;;26.30;66.60;;;;;;5014125;28;20442;-85
2022/06/24 10:20:47;;;;;;;1.10;1.00;;;26.30;66.70;;;;;;5014061;28;20494;-89
2022/06/24 10:23:36;;;;;;;1.60;1.27;;;26.30;66.70;;;;;;5014092;28;20443;-85
2022/06/24 10:26:19;;;;;;;1.30;1.20;;;26.40;66.80;;;;;;5013977;28;20483;-84
2022/06/24 10:29:20;;;;;;;1.10;1.00;;;26.30;66.80;;;;;;5014291;28;20474;-84
2022/06/24 10:31:55;;;;;;;1.40;1.30;;;26.30;66.70;;;;;;5013870;28;20450;-85
2022/06/24 10:34:36;;;;;;;1.43;1.30;;;26.30;67.00;;;;;;5013310;28;20439;-84
2022/06/24 10:37:08;;;;;;;1.30;1.20;;;26.30;66.90;;;;;;5014058;28;20471;-85
2022/06/24 10:39:46;;;;;;;1.10;1.00;;;26.30;67.00;;;;;;5013813;28;20440;-84
2022/06/24 10:42:15;;;;;;;1.37;1.27;;;26.30;67.00;;;;;;5013735;28;20446;-89
2022/06/24 10:44:54;;;;;;;2.17;1.47;;;26.30;66.90;;;;;;5013609;28;20987;-84
2022/06/24 10:47:41;;;;;;;1.50;1.40;;;26.40;67.10;;;;;;5013657;28;20491;-83
2022/06/24 10:50:21;;;;;;;1.80;1.43;;;26.40;67.00;;;;;;5013567;28;20522;-85
2022/06/24 10:52:56;;;;;;;1.63;1.33;;;26.30;67.10;;;;;;5013894;28;20441;-88
2022/06/24 10:55:33;;;;;;;1.60;1.50;;;26.30;67.00;;;;;;5013581;28;20451;-84
2022/06/24 10:58:04;;;;;;;1.30;1.20;;;26.40;67.20;;;;;;5013482;28;20858;-85
2022/06/24 11:00:48;;;;;;;2.80;1.23;;;26.30;67.10;;;;;;5013672;28;21007;-84
2022/06/24 11:03:20;;;;;;;1.33;1.23;;;26.30;67.00;;;;;;5013589;28;20509;-90
2022/06/24 11:05:48;;;;;;;1.37;1.27;;;26.30;67.00;;;;;;5013516;28;20442;-88
2022/06/24 11:08:16;;;;;;;1.40;1.30;;;26.30;67.10;;;;;;5013751;28;20531;-84
2022/06/24 11:10:44;;;;;;;1.23;1.13;;;26.30;67.00;;;;;;5013565;28;20450;-84
2022/06/24 11:13:15;;;;;;;1.77;1.67;;;26.30;66.90;;;;;;5013395;28;20930;-84
2022/06/24 11:15:45;;;;;;;2.80;1.40;;;26.30;66.90;;;;;;5013426;28;20535;-84
2022/06/24 11:18:14;;;;;;;1.37;1.27;;;26.30;66.90;;;;;;5013330;28;20444;-84
2022/06/24 11:20:43;;;;;;;1.67;1.30;;;26.40;67.10;;;;;;5013381;28;20462;-83
2022/06/24 11:23:11;;;;;;;1.30;1.20;;;26.40;67.00;;;;;;5013434;28;20472;-89
2022/06/24 11:25:40;;;;;;;1.60;1.20;;;26.30;66.90;;;;;;5013182;28;20993;-84
2022/06/24 11:28:19;;;;;;;1.20;1.10;;;26.40;67.00;;;;;;5013072;28;20480;-85
2022/06/24 11:30:46;;;;;;;4.87;1.33;;;26.40;67.70;;;;;;5013164;28;20527;-85
2022/06/24 11:33:13;;;;;;;1.27;1.17;;;26.30;67.00;;;;;;5013245;28;21024;-84
2022/06/24 11:35:40;;;;;;;1.40;1.30;;;26.30;67.00;;;;;;5013406;28;20507;-85
2022/06/24 11:38:08;;;;;;;1.50;1.40;;;26.40;66.90;;;;;;5013145;28;20535;-85
2022/06/24 11:40:36;;;;;;;1.50;1.40;;;26.30;66.90;;;;;;5013176;28;20474;-90
2022/06/24 11:43:09;;;;;;;2.10;1.83;;;26.40;67.10;;;;;;5013014;28;20475;-90
2022/06/24 11:45:38;;;;;;;1.30;1.20;;;26.40;67.00;;;;;;5015085;28;20435;-90
2022/06/24 11:48:08;;;;;;;1.43;1.33;;;26.30;67.00;;;;;;5017061;28;20487;-89
2022/06/24 11:50:35;;;;;;;1.40;1.30;;;26.30;66.90;;;;;;5016874;28;20444;-90
2022/06/24 11:53:03;;;;;;;1.67;1.57;;;26.30;66.90;;;;;;5016813;28;20454;-85
2022/06/24 11:55:32;;;;;;;1.80;1.53;;;26.40;67.00;;;;;;5017077;28;20542;-90
2022/06/24 11:58:00;;;;;;;1.60;1.50;;;26.30;66.90;;;;;;5016665;28;20490;-85
2022/06/24 12:00:30;;;;;;;1.60;1.50;;;26.40;67.00;;;;;;5016806;28;20443;-85
2022/06/24 12:03:00;;;;;;;1.40;1.30;;;26.40;67.00;;;;;;5016778;28;20447;-84
2022/06/24 12:05:29;;;;;;;1.53;1.43;;;26.30;66.80;;;;;;5016635;28;21029;-89
2022/06/24 12:07:57;;;;;;;1.73;1.63;;;26.40;67.10;;;;;;5016377;28;20526;-85
2022/06/24 12:10:24;;;;;;;1.80;1.70;;;26.30;67.30;;;;;;5016480;28;20535;-89
2022/06/24 12:12:59;;;;;;;1.40;1.30;;;26.40;67.10;;;;;;5016369;28;20439;-84
2022/06/24 12:15:28;;;;;;;1.50;1.40;;;26.40;67.10;;;;;;5016345;28;20531;-84
2022/06/24 12:17:56;;;;;;;2.00;1.90;;;26.40;67.10;;;;;;5016241;28;20938;-84
2022/06/24 12:20:25;;;;;;;1.70;1.60;;;26.40;67.20;;;;;;5016170;28;20498;-85
2022/06/24 12:23:19;;;;;;;1.90;1.80;;;26.40;67.10;;;;;;5016351;28;20471;-84
2022/06/24 12:25:48;;;;;;;1.90;1.80;;;26.40;67.10;;;;;;5017011;28;20526;-88
2022/06/24 12:28:21;;;;;;;1.50;1.40;;;26.40;67.10;;;;;;5018154;28;20518;-88
2022/06/24 12:31:04;;;;;;;1.73;1.63;;;26.40;67.10;;;;;;5016156;28;20530;-85
2022/06/24 12:33:33;;;;;;;1.90;1.80;;;26.40;67.10;;;;;;5015800;28;20539;-83
2022/06/24 12:36:08;;;;;;;1.83;1.73;;;26.40;67.10;;;;;;5017910;28;20474;-84
2022/06/24 12:38:36;;;;;;;2.20;2.10;;;26.40;67.10;;;;;;5016055;28;20973;-84
2022/06/24 12:41:12;;;;;;;2.00;1.90;;;26.30;67.00;;;;;;5017865;28;20450;-84
2022/06/24 12:43:52;;;;;;;2.00;1.90;;;26.40;67.00;;;;;;5017058;28;20461;-87
2022/06/24 12:46:19;;;;;;;1.70;1.60;;;26.40;67.00;;;;;;5016072;28;20563;-88
2022/06/24 12:51:44;;;;;;;1.70;1.60;;;26.40;67.10;;;;;;5016027;28;20497;-88
2022/06/24 12:54:12;;;;;;;2.10;1.63;;;26.40;67.10;;;;;;5015736;28;20483;-85
2022/06/24 12:56:39;;;;;;;1.60;1.50;;;26.40;67.30;;;;;;5015101;28;20444;-86
2022/06/24 12:59:06;;;;;;;1.70;1.60;;;26.40;67.10;;;;;;5015622;28;20444;-84
2022/06/24 13:01:41;;;;;;;1.80;1.70;;;26.40;67.10;;;;;;5015535;28;20534;-84
2022/06/24 13:04:08;;;;;;;1.97;1.87;;;26.40;67.20;;;;;;5022482;28;20439;-84
2022/06/24 13:06:37;;;;;;;2.37;2.17;;;26.40;67.20;;;;;;5019442;28;20491;-84
2022/06/24 13:09:04;;;;;;;1.77;1.67;;;26.40;67.20;;;;;;5023856;28;20478;-83